Messwerte Auburn-Opelika Airport

Temperatur

Temperatur
°C
1624032000 11.00 11.00 28
1624035600 12.00 12.00 29
1624039200 13.00 13.00 29
1624042800 14.00 14.00 30
1624046400 15.00 15.00 31
1624050000 16.00 16.00 31
1624053600 17.00 17.00 31
1624057200 18.00 18.00 30
1624060800 19.00 19.00 24
1624064400 20.00 20.00 24
1624068000 21.00 21.00 24
1624071600 22.00 22.00 24
1624075200 23.00 23.00 23
1624078800 0.00 0.00 23
1624082400 1.00 1.00 23
1624086000 2.00 2.00 22
1624089600 3.00 3.00 23
1624093200 4.00 4.00 23
1624096800 5.00 5.00
1624100400 6.00 6.00 22
1624104000 7.00 7.00 23
1624107600 8.00 8.00 23
1624111200 9.00 9.00
1624114800 10.00 10.00 22

Aktuellste Messwerte

Wettercharakter
Wetter: trüb und nass
Temperatur
22 °C
Feuchtigkeit
99 %
Wind
15 km/hWindrichtung: Südost
Luftdruck
1019 hPa
Messzeit: 19. Juni 2021, 10.00Datenquelle: METAR

Weitere Messstationen in der Nähe

Messstation Temperatur Entfernung
Columbus 23 °C 47 km
La Grange 23 °C 55 km
Alexander City 22 °C 59 km
Fort Benning 23 °C 65 km
Montgomery 24 °C 92 km
Montgomery 24 °C 98 km
Newnan 24 °C 98 km

Wind

Windrichtung Böen Mittelwind
° km/h km/h
1624032000 11.00 10.00 - 11.00 130° 5
1624035600 12.00 11.00 - 12.00 170° 15
1624039200 13.00 12.00 - 13.00 170° 10
1624042800 14.00 13.00 - 14.00 140° 10
1624046400 15.00 14.00 - 15.00 140° 10
1624050000 16.00 15.00 - 16.00 180° 15
1624053600 17.00 16.00 - 17.00 180° 10
1624057200 18.00 17.00 - 18.00 190° 10
1624060800 19.00 18.00 - 19.00 230° 20
1624064400 20.00 19.00 - 20.00 240° 5
1624068000 21.00 20.00 - 21.00 240° 5
1624071600 22.00 21.00 - 22.00 210° 10
1624075200 23.00 22.00 - 23.00 0
1624078800 0.00 23.00 - 0.00 130° 5
1624082400 1.00 0.00 - 1.00 120° 5
1624086000 2.00 1.00 - 2.00 50° 5
1624089600 3.00 2.00 - 3.00 80° 5
1624093200 4.00 3.00 - 4.00 160° 10
1624096800 5.00 4.00 - 5.00
1624100400 6.00 5.00 - 6.00 100° 10
1624104000 7.00 6.00 - 7.00 120° 5
1624107600 8.00 7.00 - 8.00 110° 10
1624111200 9.00 8.00 - 9.00
1624114800 10.00 9.00 - 10.00 130° 15

Ihre Wetterstation

Fehlt Ihre Wetterstation auf unserem Portal?

Schreiben Sie an network@meteonews.ch

Klima

Wann ist es am wärmsten? Wann regnet es am wenigsten? Unsere Klimadaten geben Auskunft.